Terminal Aerodrome Forecast
Issued by NWS

Home | Current Version | Previous Version | Text Only | Print | Product List | Glossary On
Versions: 1 2 3 4 5 6 7 8 9 10 11 12 13 14 15 16 17 18 19 20 21 22 23
449
FTUS43 KICT 261444 AAA
TAFHUT
TAF AMD
KHUT 261444Z 2615/2712 17012KT P6SM SCT015 BKN025
      TEMPO 2615/2617 5SM HZ BKN015
     FM261900 15018G26KT P6SM VCTS BKN040CB
     FM262300 16018KT P6SM -SHRA VCTS SCT040 BKN080CB
      TEMPO 2623/2702 VRB35G45KT 2SM TSRA BR BKN040CB
     FM270600 16014KT P6SM VCSH BKN060=

USA.gov is the U.S. government's official web portal to all federal, state and local government web resources and services.